Archbald, Pennsylvania
Current Conditions -  °F | °C
As of 12:54 AM on Sunday 26 Oct 2014 (Local Time) from KAVP Reporting Station
Clear Clear  
Wind Chill: 56°   Ceiling: Unl
Heat Index: 56°   Visibility: 10mi
Dew Point: 39°   Wind: 5mph
Humidity: 53%   Direction: 210°SSW
Pressure: 29.58"   Gusts: NA
Location:  41.51°N, 75.56°W
Report Text: KAVP 260454Z 21004KT 10SM CLR 13/04 A2958 RMK AO2 SLP013 T01330039 401890028
Loading
Personal Weather Stations






























Interactive Weather Map
Tropical Storm Tracking
New forecast layout! Learn more

10-Day Weather Forecast

Advertisements
Track Severe Weather on mobile